sensor_id;sensor_type;location;lat;lon;timestamp;temperature;humidity
33827;DHT22;20128;45.582;5.298;2023-02-28T00:00:19;7.70;58.50
33827;DHT22;20128;45.582;5.298;2023-02-28T00:02:46;7.80;58.30
33827;DHT22;20128;45.582;5.298;2023-02-28T00:05:13;7.80;58.00
33827;DHT22;20128;45.582;5.298;2023-02-28T00:07:39;7.80;58.10
33827;DHT22;20128;45.582;5.298;2023-02-28T00:10:06;7.90;58.00
33827;DHT22;20128;45.582;5.298;2023-02-28T00:12:34;7.70;57.20
33827;DHT22;20128;45.582;5.298;2023-02-28T00:15:00;7.70;57.80
33827;DHT22;20128;45.582;5.298;2023-02-28T00:17:26;7.70;58.00
33827;DHT22;20128;45.582;5.298;2023-02-28T00:19:52;7.80;58.00
33827;DHT22;20128;45.582;5.298;2023-02-28T00:22:21;7.70;58.10
33827;DHT22;20128;45.582;5.298;2023-02-28T00:24:47;7.80;57.90
33827;DHT22;20128;45.582;5.298;2023-02-28T00:27:14;7.80;58.10
33827;DHT22;20128;45.582;5.298;2023-02-28T00:29:40;7.90;58.10
33827;DHT22;20128;45.582;5.298;2023-02-28T00:32:06;7.90;57.60
33827;DHT22;20128;45.582;5.298;2023-02-28T00:34:32;7.60;56.10
33827;DHT22;20128;45.582;5.298;2023-02-28T00:37:04;7.30;56.90
33827;DHT22;20128;45.582;5.298;2023-02-28T00:39:30;7.30;58.00
33827;DHT22;20128;45.582;5.298;2023-02-28T00:41:56;7.50;58.60
33827;DHT22;20128;45.582;5.298;2023-02-28T00:44:21;7.60;58.70
33827;DHT22;20128;45.582;5.298;2023-02-28T00:46:47;7.60;58.30
33827;DHT22;20128;45.582;5.298;2023-02-28T00:49:13;7.40;57.40
33827;DHT22;20128;45.582;5.298;2023-02-28T00:51:38;7.30;57.80
33827;DHT22;20128;45.582;5.298;2023-02-28T00:54:04;7.30;58.80
33827;DHT22;20128;45.582;5.298;2023-02-28T00:56:29;7.50;58.90
33827;DHT22;20128;45.582;5.298;2023-02-28T00:58:55;7.60;58.60
33827;DHT22;20128;45.582;5.298;2023-02-28T01:01:21;7.60;58.60
33827;DHT22;20128;45.582;5.298;2023-02-28T01:03:46;7.50;58.10
33827;DHT22;20128;45.582;5.298;2023-02-28T01:06:12;7.50;58.60
33827;DHT22;20128;45.582;5.298;2023-02-28T01:08:38;7.50;58.70
33827;DHT22;20128;45.582;5.298;2023-02-28T01:11:11;7.60;58.80
33827;DHT22;20128;45.582;5.298;2023-02-28T01:13:37;7.60;58.90
33827;DHT22;20128;45.582;5.298;2023-02-28T01:16:03;7.60;58.70
33827;DHT22;20128;45.582;5.298;2023-02-28T01:18:29;7.70;58.30
33827;DHT22;20128;45.582;5.298;2023-02-28T01:20:56;7.70;57.80
33827;DHT22;20128;45.582;5.298;2023-02-28T01:23:22;7.60;58.10
33827;DHT22;20128;45.582;5.298;2023-02-28T01:25:50;7.60;58.50
33827;DHT22;20128;45.582;5.298;2023-02-28T01:28:15;7.60;58.50
33827;DHT22;20128;45.582;5.298;2023-02-28T01:30:41;7.70;58.60
33827;DHT22;20128;45.582;5.298;2023-02-28T01:33:07;7.80;58.80
33827;DHT22;20128;45.582;5.298;2023-02-28T01:35:34;7.80;58.70
33827;DHT22;20128;45.582;5.298;2023-02-28T01:38:00;7.80;58.50
33827;DHT22;20128;45.582;5.298;2023-02-28T01:40:25;7.70;58.50
33827;DHT22;20128;45.582;5.298;2023-02-28T01:42:51;7.70;58.30
33827;DHT22;20128;45.582;5.298;2023-02-28T01:45:30;7.60;58.40
33827;DHT22;20128;45.582;5.298;2023-02-28T01:48:05;7.60;58.90
33827;DHT22;20128;45.582;5.298;2023-02-28T01:50:37;7.70;59.00
33827;DHT22;20128;45.582;5.298;2023-02-28T01:53:07;7.80;59.10
33827;DHT22;20128;45.582;5.298;2023-02-28T01:55:35;7.80;58.90
33827;DHT22;20128;45.582;5.298;2023-02-28T01:58:04;7.90;58.90
33827;DHT22;20128;45.582;5.298;2023-02-28T02:00:31;7.90;58.90
33827;DHT22;20128;45.582;5.298;2023-02-28T02:02:59;7.80;58.60
33827;DHT22;20128;45.582;5.298;2023-02-28T02:05:28;7.80;58.80
33827;DHT22;20128;45.582;5.298;2023-02-28T02:07:59;7.70;58.80
33827;DHT22;20128;45.582;5.298;2023-02-28T02:16:07;7.70;59.10
33827;DHT22;20128;45.582;5.298;2023-02-28T02:18:57;7.70;58.80
33827;DHT22;20128;45.582;5.298;2023-02-28T02:24:35;7.70;58.70
33827;DHT22;20128;45.582;5.298;2023-02-28T02:40:42;7.40;59.20
33827;DHT22;20128;45.582;5.298;2023-02-28T02:43:36;7.40;59.30
33827;DHT22;20128;45.582;5.298;2023-02-28T02:46:09;7.30;58.70
33827;DHT22;20128;45.582;5.298;2023-02-28T02:48:38;7.30;59.30
33827;DHT22;20128;45.582;5.298;2023-02-28T02:51:10;7.30;59.30
33827;DHT22;20128;45.582;5.298;2023-02-28T02:53:45;7.40;59.30
33827;DHT22;20128;45.582;5.298;2023-02-28T02:56:19;7.40;59.50
33827;DHT22;20128;45.582;5.298;2023-02-28T02:58:47;7.50;60.20
33827;DHT22;20128;45.582;5.298;2023-02-28T03:01:18;7.50;58.60
33827;DHT22;20128;45.582;5.298;2023-02-28T03:04:17;7.50;58.70
33827;DHT22;20128;45.582;5.298;2023-02-28T03:06:41;7.40;58.60
33827;DHT22;20128;45.582;5.298;2023-02-28T03:09:07;7.50;58.90
33827;DHT22;20128;45.582;5.298;2023-02-28T03:11:35;7.40;59.10
33827;DHT22;20128;45.582;5.298;2023-02-28T03:14:08;7.40;58.60
33827;DHT22;20128;45.582;5.298;2023-02-28T03:19:30;7.30;58.20
33827;DHT22;20128;45.582;5.298;2023-02-28T03:22:25;7.20;57.60
33827;DHT22;20128;45.582;5.298;2023-02-28T03:27:57;7.00;57.50
33827;DHT22;20128;45.582;5.298;2023-02-28T03:30:27;7.00;57.50
33827;DHT22;20128;45.582;5.298;2023-02-28T03:32:58;7.00;57.00
33827;DHT22;20128;45.582;5.298;2023-02-28T03:35:31;6.90;54.10
33827;DHT22;20128;45.582;5.298;2023-02-28T03:38:08;6.70;55.20
33827;DHT22;20128;45.582;5.298;2023-02-28T03:40:42;6.70;56.80
33827;DHT22;20128;45.582;5.298;2023-02-28T03:43:13;6.80;58.00
33827;DHT22;20128;45.582;5.298;2023-02-28T03:45:43;6.90;58.10
33827;DHT22;20128;45.582;5.298;2023-02-28T03:48:22;7.00;57.90
33827;DHT22;20128;45.582;5.298;2023-02-28T03:50:53;7.10;57.70
33827;DHT22;20128;45.582;5.298;2023-02-28T03:53:27;7.10;57.30
33827;DHT22;20128;45.582;5.298;2023-02-28T03:56:09;7.00;56.70
33827;DHT22;20128;45.582;5.298;2023-02-28T03:58:55;6.90;57.50
33827;DHT22;20128;45.582;5.298;2023-02-28T04:01:37;6.90;56.80
33827;DHT22;20128;45.582;5.298;2023-02-28T04:04:04;6.80;55.80
33827;DHT22;20128;45.582;5.298;2023-02-28T04:06:32;6.70;56.40
33827;DHT22;20128;45.582;5.298;2023-02-28T04:08:58;6.70;56.80
33827;DHT22;20128;45.582;5.298;2023-02-28T04:11:56;6.70;57.00
33827;DHT22;20128;45.582;5.298;2023-02-28T04:14:22;6.70;57.50
33827;DHT22;20128;45.582;5.298;2023-02-28T04:16:48;6.80;57.40
33827;DHT22;20128;45.582;5.298;2023-02-28T04:19:13;6.80;57.70
33827;DHT22;20128;45.582;5.298;2023-02-28T04:21:43;6.80;57.20
33827;DHT22;20128;45.582;5.298;2023-02-28T04:24:11;6.80;56.40
33827;DHT22;20128;45.582;5.298;2023-02-28T04:26:41;6.70;56.90
33827;DHT22;20128;45.582;5.298;2023-02-28T04:29:09;6.60;57.20
33827;DHT22;20128;45.582;5.298;2023-02-28T04:31:36;6.70;57.90
33827;DHT22;20128;45.582;5.298;2023-02-28T04:34:02;6.80;58.20
33827;DHT22;20128;45.582;5.298;2023-02-28T04:36:30;6.90;57.90
33827;DHT22;20128;45.582;5.298;2023-02-28T04:38:57;6.90;57.80
33827;DHT22;20128;45.582;5.298;2023-02-28T04:41:22;7.00;58.10
33827;DHT22;20128;45.582;5.298;2023-02-28T04:43:48;7.00;58.20
33827;DHT22;20128;45.582;5.298;2023-02-28T04:46:14;7.00;58.30
33827;DHT22;20128;45.582;5.298;2023-02-28T04:48:41;7.10;58.50
33827;DHT22;20128;45.582;5.298;2023-02-28T04:51:12;7.10;58.40
33827;DHT22;20128;45.582;5.298;2023-02-28T04:53:39;7.20;58.30
33827;DHT22;20128;45.582;5.298;2023-02-28T04:56:06;7.20;58.20
33827;DHT22;20128;45.582;5.298;2023-02-28T04:58:32;7.20;58.10
33827;DHT22;20128;45.582;5.298;2023-02-28T05:01:14;7.20;58.00
33827;DHT22;20128;45.582;5.298;2023-02-28T05:03:42;7.20;57.70
33827;DHT22;20128;45.582;5.298;2023-02-28T05:06:11;7.10;56.90
33827;DHT22;20128;45.582;5.298;2023-02-28T05:08:37;7.10;57.10
33827;DHT22;20128;45.582;5.298;2023-02-28T05:11:07;7.10;57.70
33827;DHT22;20128;45.582;5.298;2023-02-28T05:13:37;7.10;58.00
33827;DHT22;20128;45.582;5.298;2023-02-28T05:16:03;7.00;56.30
33827;DHT22;20128;45.582;5.298;2023-02-28T05:18:28;6.90;56.70
33827;DHT22;20128;45.582;5.298;2023-02-28T05:20:54;6.90;57.40
33827;DHT22;20128;45.582;5.298;2023-02-28T05:23:20;6.90;57.90
33827;DHT22;20128;45.582;5.298;2023-02-28T05:25:47;7.00;57.80
33827;DHT22;20128;45.582;5.298;2023-02-28T05:28:13;7.10;58.00
33827;DHT22;20128;45.582;5.298;2023-02-28T05:30:39;7.20;58.30
33827;DHT22;20128;45.582;5.298;2023-02-28T05:33:05;7.20;57.90
33827;DHT22;20128;45.582;5.298;2023-02-28T05:35:31;7.20;57.80
33827;DHT22;20128;45.582;5.298;2023-02-28T05:37:57;7.40;58.00
33827;DHT22;20128;45.582;5.298;2023-02-28T05:40:23;7.40;57.90
33827;DHT22;20128;45.582;5.298;2023-02-28T05:42:50;7.50;57.90
33827;DHT22;20128;45.582;5.298;2023-02-28T05:45:16;7.40;56.50
33827;DHT22;20128;45.582;5.298;2023-02-28T05:47:42;7.30;55.60
33827;DHT22;20128;45.582;5.298;2023-02-28T05:50:08;7.00;54.80
33827;DHT22;20128;45.582;5.298;2023-02-28T05:52:36;6.90;55.90
33827;DHT22;20128;45.582;5.298;2023-02-28T05:55:01;6.90;54.90
33827;DHT22;20128;45.582;5.298;2023-02-28T05:57:27;6.60;56.10
33827;DHT22;20128;45.582;5.298;2023-02-28T05:59:53;6.70;56.50
33827;DHT22;20128;45.582;5.298;2023-02-28T06:02:18;6.70;57.40
33827;DHT22;20128;45.582;5.298;2023-02-28T06:04:45;6.90;57.60
33827;DHT22;20128;45.582;5.298;2023-02-28T06:07:11;6.90;57.90
33827;DHT22;20128;45.582;5.298;2023-02-28T06:09:37;7.00;57.80
33827;DHT22;20128;45.582;5.298;2023-02-28T06:12:04;7.10;57.50
33827;DHT22;20128;45.582;5.298;2023-02-28T06:14:31;7.00;56.00
33827;DHT22;20128;45.582;5.298;2023-02-28T06:16:57;7.00;56.30
33827;DHT22;20128;45.582;5.298;2023-02-28T06:19:23;6.80;55.50
33827;DHT22;20128;45.582;5.298;2023-02-28T06:21:51;6.70;55.40
33827;DHT22;20128;45.582;5.298;2023-02-28T06:24:21;6.60;55.70
33827;DHT22;20128;45.582;5.298;2023-02-28T06:26:47;6.60;56.20
33827;DHT22;20128;45.582;5.298;2023-02-28T06:29:13;6.60;56.80
33827;DHT22;20128;45.582;5.298;2023-02-28T06:31:42;6.60;57.00
33827;DHT22;20128;45.582;5.298;2023-02-28T06:34:09;6.60;57.10
33827;DHT22;20128;45.582;5.298;2023-02-28T06:36:37;6.60;57.00
33827;DHT22;20128;45.582;5.298;2023-02-28T06:39:03;6.60;55.50
33827;DHT22;20128;45.582;5.298;2023-02-28T06:41:29;6.40;54.30
33827;DHT22;20128;45.582;5.298;2023-02-28T06:43:55;6.30;55.60
33827;DHT22;20128;45.582;5.298;2023-02-28T06:46:21;6.30;55.60
33827;DHT22;20128;45.582;5.298;2023-02-28T06:48:47;6.20;56.00
33827;DHT22;20128;45.582;5.298;2023-02-28T06:51:17;6.10;56.40
33827;DHT22;20128;45.582;5.298;2023-02-28T06:53:43;6.00;56.00
33827;DHT22;20128;45.582;5.298;2023-02-28T06:56:14;5.90;56.80
33827;DHT22;20128;45.582;5.298;2023-02-28T06:58:41;5.90;56.80
33827;DHT22;20128;45.582;5.298;2023-02-28T07:01:08;5.90;56.90
33827;DHT22;20128;45.582;5.298;2023-02-28T07:03:35;6.10;57.00
33827;DHT22;20128;45.582;5.298;2023-02-28T07:06:01;6.10;55.90
33827;DHT22;20128;45.582;5.298;2023-02-28T07:08:28;6.10;55.70
33827;DHT22;20128;45.582;5.298;2023-02-28T07:10:54;6.10;55.00
33827;DHT22;20128;45.582;5.298;2023-02-28T07:13:21;5.90;54.50
33827;DHT22;20128;45.582;5.298;2023-02-28T07:16:07;5.60;55.30
33827;DHT22;20128;45.582;5.298;2023-02-28T07:18:35;5.50;55.50
33827;DHT22;20128;45.582;5.298;2023-02-28T07:21:05;5.40;54.60
33827;DHT22;20128;45.582;5.298;2023-02-28T07:23:32;5.40;55.80
33827;DHT22;20128;45.582;5.298;2023-02-28T07:25:58;5.50;56.00
33827;DHT22;20128;45.582;5.298;2023-02-28T07:28:23;5.60;56.40
33827;DHT22;20128;45.582;5.298;2023-02-28T07:30:49;5.60;56.10
33827;DHT22;20128;45.582;5.298;2023-02-28T07:33:15;5.50;55.80
33827;DHT22;20128;45.582;5.298;2023-02-28T07:35:41;5.50;56.10
33827;DHT22;20128;45.582;5.298;2023-02-28T07:38:07;5.60;56.10
33827;DHT22;20128;45.582;5.298;2023-02-28T07:40:34;5.70;56.30
33827;DHT22;20128;45.582;5.298;2023-02-28T07:43:01;5.60;55.90
33827;DHT22;20128;45.582;5.298;2023-02-28T07:45:27;5.60;56.20
33827;DHT22;20128;45.582;5.298;2023-02-28T07:47:54;5.60;56.40
33827;DHT22;20128;45.582;5.298;2023-02-28T07:50:20;5.80;56.70
33827;DHT22;20128;45.582;5.298;2023-02-28T07:52:46;6.10;56.60
33827;DHT22;20128;45.582;5.298;2023-02-28T07:55:12;6.10;55.60
33827;DHT22;20128;45.582;5.298;2023-02-28T07:57:39;6.00;54.90
33827;DHT22;20128;45.582;5.298;2023-02-28T08:00:07;6.00;55.30
33827;DHT22;20128;45.582;5.298;2023-02-28T08:02:35;5.90;54.40
33827;DHT22;20128;45.582;5.298;2023-02-28T08:05:01;5.80;54.90
33827;DHT22;20128;45.582;5.298;2023-02-28T08:07:27;5.80;55.20
33827;DHT22;20128;45.582;5.298;2023-02-28T08:09:52;5.90;55.40
33827;DHT22;20128;45.582;5.298;2023-02-28T08:12:18;6.10;55.10
33827;DHT22;20128;45.582;5.298;2023-02-28T08:14:44;6.00;54.10
33827;DHT22;20128;45.582;5.298;2023-02-28T08:17:10;6.00;54.60
33827;DHT22;20128;45.582;5.298;2023-02-28T08:19:36;5.90;54.50
33827;DHT22;20128;45.582;5.298;2023-02-28T08:22:02;5.90;54.80
33827;DHT22;20128;45.582;5.298;2023-02-28T08:24:28;5.80;53.50
33827;DHT22;20128;45.582;5.298;2023-02-28T08:26:54;5.70;53.00
33827;DHT22;20128;45.582;5.298;2023-02-28T08:29:20;5.40;54.10
33827;DHT22;20128;45.582;5.298;2023-02-28T08:31:45;5.40;54.80
33827;DHT22;20128;45.582;5.298;2023-02-28T08:34:15;5.40;54.80
33827;DHT22;20128;45.582;5.298;2023-02-28T08:36:41;5.40;55.20
33827;DHT22;20128;45.582;5.298;2023-02-28T08:39:09;5.50;55.20
33827;DHT22;20128;45.582;5.298;2023-02-28T08:41:35;5.60;55.70
33827;DHT22;20128;45.582;5.298;2023-02-28T08:44:02;5.80;55.80
33827;DHT22;20128;45.582;5.298;2023-02-28T08:46:27;5.80;55.40
33827;DHT22;20128;45.582;5.298;2023-02-28T08:48:55;5.70;53.80
33827;DHT22;20128;45.582;5.298;2023-02-28T08:51:22;5.70;54.00
33827;DHT22;20128;45.582;5.298;2023-02-28T08:53:53;5.50;54.50
33827;DHT22;20128;45.582;5.298;2023-02-28T08:56:19;5.40;55.80
33827;DHT22;20128;45.582;5.298;2023-02-28T08:58:47;5.40;56.10
33827;DHT22;20128;45.582;5.298;2023-02-28T09:01:13;5.50;56.30
33827;DHT22;20128;45.582;5.298;2023-02-28T09:03:40;5.70;55.90
33827;DHT22;20128;45.582;5.298;2023-02-28T09:06:08;5.70;56.20
33827;DHT22;20128;45.582;5.298;2023-02-28T09:08:35;5.70;56.10
33827;DHT22;20128;45.582;5.298;2023-02-28T09:11:00;5.80;56.30
33827;DHT22;20128;45.582;5.298;2023-02-28T09:13:27;5.90;55.30
33827;DHT22;20128;45.582;5.298;2023-02-28T09:15:53;6.10;55.50
33827;DHT22;20128;45.582;5.298;2023-02-28T09:18:20;6.20;55.30
33827;DHT22;20128;45.582;5.298;2023-02-28T09:20:46;6.10;54.70
33827;DHT22;20128;45.582;5.298;2023-02-28T09:23:12;6.00;55.00
33827;DHT22;20128;45.582;5.298;2023-02-28T09:25:48;6.10;54.90
33827;DHT22;20128;45.582;5.298;2023-02-28T09:28:15;6.00;55.10
33827;DHT22;20128;45.582;5.298;2023-02-28T09:30:41;5.80;55.20
33827;DHT22;20128;45.582;5.298;2023-02-28T09:33:07;5.70;55.30
33827;DHT22;20128;45.582;5.298;2023-02-28T09:35:33;5.70;55.10
33827;DHT22;20128;45.582;5.298;2023-02-28T09:37:59;5.70;55.40
33827;DHT22;20128;45.582;5.298;2023-02-28T09:40:25;5.70;55.40
33827;DHT22;20128;45.582;5.298;2023-02-28T09:42:53;5.80;54.90
33827;DHT22;20128;45.582;5.298;2023-02-28T09:45:24;5.80;55.00
33827;DHT22;20128;45.582;5.298;2023-02-28T09:47:54;5.90;55.30
33827;DHT22;20128;45.582;5.298;2023-02-28T09:50:52;5.90;55.40
33827;DHT22;20128;45.582;5.298;2023-02-28T09:53:26;5.90;55.10
33827;DHT22;20128;45.582;5.298;2023-02-28T09:55:58;5.80;55.20
33827;DHT22;20128;45.582;5.298;2023-02-28T09:58:56;5.90;55.90
33827;DHT22;20128;45.582;5.298;2023-02-28T10:06:49;6.10;55.00
33827;DHT22;20128;45.582;5.298;2023-02-28T10:09:23;6.10;54.50
33827;DHT22;20128;45.582;5.298;2023-02-28T10:11:56;6.10;54.60
33827;DHT22;20128;45.582;5.298;2023-02-28T10:14:26;6.10;54.60
33827;DHT22;20128;45.582;5.298;2023-02-28T10:16:58;6.10;53.40
33827;DHT22;20128;45.582;5.298;2023-02-28T10:22:10;6.10;55.20
33827;DHT22;20128;45.582;5.298;2023-02-28T10:24:48;6.00;54.40
33827;DHT22;20128;45.582;5.298;2023-02-28T10:27:22;6.00;54.80
33827;DHT22;20128;45.582;5.298;2023-02-28T10:29:52;6.00;55.40
33827;DHT22;20128;45.582;5.298;2023-02-28T10:32:30;6.10;55.30
33827;DHT22;20128;45.582;5.298;2023-02-28T10:35:16;6.10;54.40
33827;DHT22;20128;45.582;5.298;2023-02-28T10:37:44;6.00;54.40
33827;DHT22;20128;45.582;5.298;2023-02-28T10:43:05;6.20;53.80
33827;DHT22;20128;45.582;5.298;2023-02-28T10:45:32;6.20;54.40
33827;DHT22;20128;45.582;5.298;2023-02-28T10:48:05;6.20;54.50
33827;DHT22;20128;45.582;5.298;2023-02-28T11:01:46;6.50;55.20
33827;DHT22;20128;45.582;5.298;2023-02-28T11:04:34;6.70;54.50
33827;DHT22;20128;45.582;5.298;2023-02-28T11:09:54;7.00;53.10
33827;DHT22;20128;45.582;5.298;2023-02-28T11:12:31;7.00;52.70
33827;DHT22;20128;45.582;5.298;2023-02-28T11:15:03;7.00;52.80
33827;DHT22;20128;45.582;5.298;2023-02-28T11:17:32;7.00;53.00
33827;DHT22;20128;45.582;5.298;2023-02-28T11:20:02;7.00;53.30
33827;DHT22;20128;45.582;5.298;2023-02-28T11:22:32;7.20;52.60
33827;DHT22;20128;45.582;5.298;2023-02-28T11:25:02;7.20;52.60
33827;DHT22;20128;45.582;5.298;2023-02-28T11:30:01;7.30;52.60
33827;DHT22;20128;45.582;5.298;2023-02-28T11:32:28;7.20;52.90
33827;DHT22;20128;45.582;5.298;2023-02-28T11:35:28;7.10;53.30
33827;DHT22;20128;45.582;5.298;2023-02-28T11:37:57;7.10;53.40
33827;DHT22;20128;45.582;5.298;2023-02-28T11:43:34;7.00;52.70
33827;DHT22;20128;45.582;5.298;2023-02-28T11:46:33;7.00;52.30
33827;DHT22;20128;45.582;5.298;2023-02-28T11:49:23;7.00;52.70
33827;DHT22;20128;45.582;5.298;2023-02-28T11:51:59;6.90;53.50
33827;DHT22;20128;45.582;5.298;2023-02-28T11:57:56;7.10;52.80
33827;DHT22;20128;45.582;5.298;2023-02-28T12:11:03;7.40;51.10
33827;DHT22;20128;45.582;5.298;2023-02-28T12:13:54;7.30;52.20
33827;DHT22;20128;45.582;5.298;2023-02-28T12:16:31;7.30;52.10
33827;DHT22;20128;45.582;5.298;2023-02-28T12:19:20;7.30;52.70
33827;DHT22;20128;45.582;5.298;2023-02-28T12:24:48;7.30;52.50
33827;DHT22;20128;45.582;5.298;2023-02-28T12:27:20;7.30;53.00
33827;DHT22;20128;45.582;5.298;2023-02-28T12:29:58;7.40;52.30
33827;DHT22;20128;45.582;5.298;2023-02-28T12:32:35;7.30;52.10
33827;DHT22;20128;45.582;5.298;2023-02-28T12:35:06;7.30;53.00
33827;DHT22;20128;45.582;5.298;2023-02-28T12:38:09;7.30;53.50
33827;DHT22;20128;45.582;5.298;2023-02-28T12:40:42;7.30;53.70
33827;DHT22;20128;45.582;5.298;2023-02-28T12:43:10;7.40;54.30
33827;DHT22;20128;45.582;5.298;2023-02-28T12:45:45;7.70;52.70
33827;DHT22;20128;45.582;5.298;2023-02-28T12:48:18;7.70;53.00
33827;DHT22;20128;45.582;5.298;2023-02-28T12:50:45;7.70;51.80
33827;DHT22;20128;45.582;5.298;2023-02-28T13:01:56;7.60;52.60
33827;DHT22;20128;45.582;5.298;2023-02-28T13:10:12;7.60;52.80
33827;DHT22;20128;45.582;5.298;2023-02-28T13:12:53;7.60;51.80
33827;DHT22;20128;45.582;5.298;2023-02-28T13:15:27;7.60;52.60
33827;DHT22;20128;45.582;5.298;2023-02-28T13:17:58;7.70;52.40
33827;DHT22;20128;45.582;5.298;2023-02-28T13:20:35;7.60;51.80
33827;DHT22;20128;45.582;5.298;2023-02-28T13:23:02;7.60;52.50
33827;DHT22;20128;45.582;5.298;2023-02-28T13:28:09;7.70;52.90
33827;DHT22;20128;45.582;5.298;2023-02-28T13:38:34;8.20;52.60
33827;DHT22;20128;45.582;5.298;2023-02-28T13:41:53;8.20;50.50
33827;DHT22;20128;45.582;5.298;2023-02-28T13:44:22;8.20;52.20
33827;DHT22;20128;45.582;5.298;2023-02-28T13:49:27;8.30;52.00
33827;DHT22;20128;45.582;5.298;2023-02-28T13:57:36;8.50;52.20
33827;DHT22;20128;45.582;5.298;2023-02-28T14:00:40;8.60;51.50
33827;DHT22;20128;45.582;5.298;2023-02-28T14:06:28;8.60;51.10
33827;DHT22;20128;45.582;5.298;2023-02-28T14:11:35;8.40;50.80
33827;DHT22;20128;45.582;5.298;2023-02-28T14:14:03;8.30;50.70
33827;DHT22;20128;45.582;5.298;2023-02-28T14:16:44;8.20;51.20
33827;DHT22;20128;45.582;5.298;2023-02-28T14:19:14;8.20;51.80
33827;DHT22;20128;45.582;5.298;2023-02-28T14:22:13;8.20;51.70
33827;DHT22;20128;45.582;5.298;2023-02-28T14:25:22;8.30;52.00
33827;DHT22;20128;45.582;5.298;2023-02-28T14:28:10;8.40;52.00
33827;DHT22;20128;45.582;5.298;2023-02-28T14:36:18;8.60;51.50
33827;DHT22;20128;45.582;5.298;2023-02-28T14:38:51;8.70;50.80
33827;DHT22;20128;45.582;5.298;2023-02-28T14:41:39;8.80;51.20
33827;DHT22;20128;45.582;5.298;2023-02-28T14:46:44;9.00;51.10
33827;DHT22;20128;45.582;5.298;2023-02-28T14:49:27;9.00;50.20
33827;DHT22;20128;45.582;5.298;2023-02-28T14:55:04;8.90;49.50
33827;DHT22;20128;45.582;5.298;2023-02-28T14:57:33;8.80;50.70
33827;DHT22;20128;45.582;5.298;2023-02-28T15:00:27;8.80;50.70
33827;DHT22;20128;45.582;5.298;2023-02-28T15:02:55;8.70;50.50
33827;DHT22;20128;45.582;5.298;2023-02-28T15:05:32;8.70;51.10
33827;DHT22;20128;45.582;5.298;2023-02-28T15:10:40;8.70;51.30
33827;DHT22;20128;45.582;5.298;2023-02-28T15:13:12;8.70;50.80
33827;DHT22;20128;45.582;5.298;2023-02-28T15:21:15;8.50;51.10
33827;DHT22;20128;45.582;5.298;2023-02-28T15:23:46;8.50;51.00
33827;DHT22;20128;45.582;5.298;2023-02-28T15:26:16;8.40;51.40
33827;DHT22;20128;45.582;5.298;2023-02-28T15:28:43;8.40;51.80
33827;DHT22;20128;45.582;5.298;2023-02-28T15:31:35;8.40;52.30
33827;DHT22;20128;45.582;5.298;2023-02-28T15:34:06;8.50;51.60
33827;DHT22;20128;45.582;5.298;2023-02-28T15:36:34;8.60;52.00
33827;DHT22;20128;45.582;5.298;2023-02-28T15:39:16;8.60;51.90
33827;DHT22;20128;45.582;5.298;2023-02-28T15:41:43;8.60;51.80
33827;DHT22;20128;45.582;5.298;2023-02-28T15:47:02;8.60;52.00
33827;DHT22;20128;45.582;5.298;2023-02-28T15:49:40;8.50;52.30
33827;DHT22;20128;45.582;5.298;2023-02-28T15:52:16;8.50;51.90
33827;DHT22;20128;45.582;5.298;2023-02-28T15:54:43;8.50;52.00
33827;DHT22;20128;45.582;5.298;2023-02-28T15:57:22;8.50;51.90
33827;DHT22;20128;45.582;5.298;2023-02-28T15:59:55;8.40;52.00
33827;DHT22;20128;45.582;5.298;2023-02-28T16:02:35;8.40;52.20
33827;DHT22;20128;45.582;5.298;2023-02-28T16:07:41;8.40;52.40
33827;DHT22;20128;45.582;5.298;2023-02-28T16:10:10;8.50;52.60
33827;DHT22;20128;45.582;5.298;2023-02-28T16:12:38;8.40;52.10
33827;DHT22;20128;45.582;5.298;2023-02-28T16:15:28;8.40;52.70
33827;DHT22;20128;45.582;5.298;2023-02-28T16:17:55;8.40;52.40
33827;DHT22;20128;45.582;5.298;2023-02-28T16:20:26;8.40;52.30
33827;DHT22;20128;45.582;5.298;2023-02-28T16:22:53;8.40;52.30
33827;DHT22;20128;45.582;5.298;2023-02-28T16:25:33;8.50;52.30
33827;DHT22;20128;45.582;5.298;2023-02-28T16:27:59;8.40;52.00
33827;DHT22;20128;45.582;5.298;2023-02-28T16:30:27;8.40;52.50
33827;DHT22;20128;45.582;5.298;2023-02-28T16:32:55;8.40;52.50
33827;DHT22;20128;45.582;5.298;2023-02-28T16:35:21;8.40;52.20
33827;DHT22;20128;45.582;5.298;2023-02-28T16:37:47;8.40;51.50
33827;DHT22;20128;45.582;5.298;2023-02-28T16:40:18;8.30;51.70
33827;DHT22;20128;45.582;5.298;2023-02-28T16:42:47;8.20;52.10
33827;DHT22;20128;45.582;5.298;2023-02-28T16:45:25;8.20;52.00
33827;DHT22;20128;45.582;5.298;2023-02-28T16:47:52;8.10;52.30
33827;DHT22;20128;45.582;5.298;2023-02-28T16:52:45;8.10;52.30
33827;DHT22;20128;45.582;5.298;2023-02-28T16:55:11;8.00;52.70
33827;DHT22;20128;45.582;5.298;2023-02-28T16:57:38;8.00;52.70
33827;DHT22;20128;45.582;5.298;2023-02-28T17:00:06;8.10;52.80
33827;DHT22;20128;45.582;5.298;2023-02-28T17:02:33;8.10;52.80
33827;DHT22;20128;45.582;5.298;2023-02-28T17:04:59;8.00;52.70
33827;DHT22;20128;45.582;5.298;2023-02-28T17:07:24;8.00;52.90
33827;DHT22;20128;45.582;5.298;2023-02-28T17:09:50;7.90;53.10
33827;DHT22;20128;45.582;5.298;2023-02-28T17:12:16;7.70;53.30
33827;DHT22;20128;45.582;5.298;2023-02-28T17:14:41;7.60;53.80
33827;DHT22;20128;45.582;5.298;2023-02-28T17:17:09;7.60;53.80
33827;DHT22;20128;45.582;5.298;2023-02-28T17:19:35;7.50;54.20
33827;DHT22;20128;45.582;5.298;2023-02-28T17:22:01;7.60;54.50
33827;DHT22;20128;45.582;5.298;2023-02-28T17:24:28;7.60;54.50
33827;DHT22;20128;45.582;5.298;2023-02-28T17:26:54;7.60;54.30
33827;DHT22;20128;45.582;5.298;2023-02-28T17:29:21;7.60;54.40
33827;DHT22;20128;45.582;5.298;2023-02-28T17:31:47;7.60;54.40
33827;DHT22;20128;45.582;5.298;2023-02-28T17:34:13;7.50;54.40
33827;DHT22;20128;45.582;5.298;2023-02-28T17:36:44;7.50;54.60
33827;DHT22;20128;45.582;5.298;2023-02-28T17:39:12;7.50;54.80
33827;DHT22;20128;45.582;5.298;2023-02-28T17:41:45;7.40;54.70
33827;DHT22;20128;45.582;5.298;2023-02-28T17:44:11;7.30;54.80
33827;DHT22;20128;45.582;5.298;2023-02-28T17:46:36;7.30;55.30
33827;DHT22;20128;45.582;5.298;2023-02-28T17:49:02;7.40;55.10
33827;DHT22;20128;45.582;5.298;2023-02-28T17:51:28;7.30;55.20
33827;DHT22;20128;45.582;5.298;2023-02-28T17:53:53;7.40;55.30
33827;DHT22;20128;45.582;5.298;2023-02-28T17:56:22;7.40;55.30
33827;DHT22;20128;45.582;5.298;2023-02-28T17:58:49;7.40;55.30
33827;DHT22;20128;45.582;5.298;2023-02-28T18:01:15;7.50;55.60
33827;DHT22;20128;45.582;5.298;2023-02-28T18:03:41;7.60;55.40
33827;DHT22;20128;45.582;5.298;2023-02-28T18:06:07;7.50;55.00
33827;DHT22;20128;45.582;5.298;2023-02-28T18:08:37;7.40;54.80
33827;DHT22;20128;45.582;5.298;2023-02-28T18:11:03;7.30;54.90
33827;DHT22;20128;45.582;5.298;2023-02-28T18:13:28;7.20;55.00
33827;DHT22;20128;45.582;5.298;2023-02-28T18:15:54;7.10;55.10
33827;DHT22;20128;45.582;5.298;2023-02-28T18:18:20;7.00;55.30
33827;DHT22;20128;45.582;5.298;2023-02-28T18:20:45;7.00;55.60
33827;DHT22;20128;45.582;5.298;2023-02-28T18:23:13;7.00;55.80
33827;DHT22;20128;45.582;5.298;2023-02-28T18:25:39;6.90;55.90